createdAt,value
2023-05-17T00:01:05.733Z,1006.9
2023-05-17T00:02:22.024Z,1007
2023-05-17T00:03:38.334Z,1006.9
2023-05-17T00:04:54.634Z,1006.9
2023-05-17T00:06:10.928Z,1006.9
2023-05-17T00:07:26.215Z,1006.9
2023-05-17T00:08:42.523Z,1006.9
2023-05-17T00:09:58.813Z,1007
2023-05-17T00:11:15.099Z,1007
2023-05-17T00:12:31.408Z,1007
2023-05-17T00:13:47.701Z,1007
2023-05-17T00:15:03.980Z,1007
2023-05-17T00:16:20.276Z,1007
2023-05-17T00:17:36.571Z,1007
2023-05-17T00:18:52.878Z,1007
2023-05-17T00:20:09.163Z,1007
2023-05-17T00:21:25.453Z,1007
2023-05-17T00:22:41.747Z,1007.1
2023-05-17T00:23:57.072Z,1007
2023-05-17T00:25:13.361Z,1007.1
2023-05-17T00:26:29.644Z,1007.1
2023-05-17T00:27:45.949Z,1007.1
2023-05-17T00:29:02.240Z,1007.1
2023-05-17T00:30:18.528Z,1007.1
2023-05-17T00:31:34.833Z,1007.1
2023-05-17T00:32:51.000Z,1007.1
2023-05-17T00:34:07.421Z,1007.1
2023-05-17T00:35:23.714Z,1007.1
2023-05-17T00:36:39.999Z,1007.1
2023-05-17T00:37:56.293Z,1007.1
2023-05-17T00:39:12.584Z,1007.1
2023-05-17T00:40:28.891Z,1007.1
2023-05-17T00:41:44.188Z,1007.1
2023-05-17T00:43:00.480Z,1007.1
2023-05-17T00:44:16.783Z,1007.1
2023-05-17T00:45:33.088Z,1007.1
2023-05-17T00:46:49.367Z,1007.1
2023-05-17T00:48:05.655Z,1007.1
2023-05-17T00:49:21.949Z,1007.1
2023-05-17T00:50:38.250Z,1007.1
2023-05-17T00:51:54.548Z,1007.1
2023-05-17T00:53:10.845Z,1007.1
2023-05-17T00:54:27.124Z,1007.1
2023-05-17T00:55:43.448Z,1007.1
2023-05-17T00:56:59.727Z,1007.2
2023-05-17T00:58:15.047Z,1007.1
2023-05-17T00:59:31.325Z,1007.2
2023-05-17T01:00:47.619Z,1007.1
2023-05-17T01:02:03.905Z,1007.1
2023-05-17T01:03:20.201Z,1007.1
2023-05-17T01:04:36.504Z,1007.1
2023-05-17T01:05:52.801Z,1007.1
2023-05-17T01:07:09.089Z,1007.1
2023-05-17T01:08:25.380Z,1007.1
2023-05-17T01:09:41.684Z,1007.1
2023-05-17T01:10:57.974Z,1007.1
2023-05-17T01:12:14.280Z,1007.1
2023-05-17T01:13:30.550Z,1007.1
2023-05-17T01:14:45.867Z,1007.2
2023-05-17T01:16:02.170Z,1007.2
2023-05-17T01:17:18.456Z,1007.2
2023-05-17T01:18:34.752Z,1007.1
2023-05-17T01:19:51.055Z,1007.2
2023-05-17T01:21:07.336Z,1007.2
2023-05-17T01:22:23.628Z,1007.2
2023-05-17T01:23:39.919Z,1007.2
2023-05-17T01:24:56.212Z,1007.2
2023-05-17T01:26:12.505Z,1007.2
2023-05-17T01:27:28.811Z,1007.2
2023-05-17T01:28:45.109Z,1007.2
2023-05-17T01:30:01.388Z,1007.2
2023-05-17T01:31:17.685Z,1007.2
2023-05-17T01:32:33.002Z,1007.2
2023-05-17T01:33:49.291Z,1007.2
2023-05-17T01:35:05.580Z,1007.2
2023-05-17T01:36:21.878Z,1007.3
2023-05-17T01:37:38.179Z,1007.3
2023-05-17T01:38:54.473Z,1007.3
2023-05-17T01:40:10.760Z,1007.3
2023-05-17T01:41:27.048Z,1007.3
2023-05-17T01:42:43.340Z,1007.3
2023-05-17T01:43:59.641Z,1007.4
2023-05-17T01:45:15.950Z,1007.4
2023-05-17T01:46:32.219Z,1007.4
2023-05-17T01:47:48.524Z,1007.4
2023-05-17T01:49:03.842Z,1007.3
2023-05-17T01:50:20.137Z,1007.3
2023-05-17T01:51:36.428Z,1007.3
2023-05-17T01:52:52.701Z,1007.3
2023-05-17T01:54:08.998Z,1007.3
2023-05-17T01:55:25.288Z,1007.3
2023-05-17T01:56:41.596Z,1007.3
2023-05-17T01:57:57.887Z,1007.3
2023-05-17T01:59:14.186Z,1007.4
2023-05-17T02:00:30.463Z,1007.3
2023-05-17T02:01:46.759Z,1007.4
2023-05-17T02:03:03.059Z,1007.4
2023-05-17T02:04:19.368Z,1007.4
2023-05-17T02:05:34.661Z,1007.4
2023-05-17T02:06:50.956Z,1007.4
2023-05-17T02:08:07.252Z,1007.4
2023-05-17T02:09:23.554Z,1007.5
2023-05-17T02:10:39.842Z,1007.5
2023-05-17T02:11:56.133Z,1007.5
2023-05-17T02:13:12.418Z,1007.5
2023-05-17T02:14:28.720Z,1007.5
2023-05-17T02:15:45.028Z,1007.5
2023-05-17T02:17:01.314Z,1007.5
2023-05-17T02:18:17.596Z,1007.5
2023-05-17T02:19:33.887Z,1007.5
2023-05-17T02:20:50.194Z,1007.5
2023-05-17T02:22:05.501Z,1007.5
2023-05-17T02:23:21.797Z,1007.5
2023-05-17T02:24:38.075Z,1007.5
2023-05-17T02:25:54.384Z,1007.5
2023-05-17T02:27:10.670Z,1007.4
2023-05-17T02:28:26.974Z,1007.4
2023-05-17T02:29:43.249Z,1007.4
2023-05-17T02:30:59.546Z,1007.4
2023-05-17T02:32:15.854Z,1007.4
2023-05-17T02:33:32.139Z,1007.4
2023-05-17T02:34:48.430Z,1007.4
2023-05-17T02:36:04.722Z,1007.4
2023-05-17T02:37:21.011Z,1007.4
2023-05-17T02:38:36.339Z,1007.4
2023-05-17T02:39:52.633Z,1007.4
2023-05-17T02:41:08.931Z,1007.3
2023-05-17T02:42:25.217Z,1007.4
2023-05-17T02:43:41.515Z,1007.4
2023-05-17T02:44:57.801Z,1007.4
2023-05-17T02:46:14.034Z,1007.4
2023-05-17T02:47:30.331Z,1007.5
2023-05-17T02:48:46.634Z,1007.4
2023-05-17T02:50:02.870Z,1007.5
2023-05-17T02:51:19.123Z,1007.5
2023-05-17T02:52:35.359Z,1007.5
2023-05-17T02:53:51.605Z,1007.5
2023-05-17T02:55:06.857Z,1007.5
2023-05-17T02:56:23.107Z,1007.5
2023-05-17T02:57:39.335Z,1007.6
2023-05-17T02:58:55.635Z,1007.6
2023-05-17T03:00:12.011Z,1007.6
2023-05-17T03:01:28.250Z,1007.5
2023-05-17T03:02:44.497Z,1007.6
2023-05-17T03:04:00.737Z,1007.6
2023-05-17T03:05:16.974Z,1007.6
2023-05-17T03:06:33.220Z,1007.7
2023-05-17T03:07:49.446Z,1007.6
2023-05-17T03:09:05.701Z,1007.6
2023-05-17T03:10:21.952Z,1007.6
2023-05-17T03:11:38.174Z,1007.6
2023-05-17T03:12:54.400Z,1007.7
2023-05-17T03:14:10.658Z,1007.6
2023-05-17T03:15:26.897Z,1007.6
2023-05-17T03:16:42.141Z,1007.6
2023-05-17T03:17:58.406Z,1007.6
2023-05-17T03:19:14.634Z,1007.7
2023-05-17T03:20:30.869Z,1007.7
2023-05-17T03:21:47.116Z,1007.7
2023-05-17T03:23:03.365Z,1007.7
2023-05-17T03:24:19.592Z,1007.6
2023-05-17T03:25:35.827Z,1007.7
2023-05-17T03:26:52.074Z,1007.7
2023-05-17T03:28:08.305Z,1007.6
2023-05-17T03:29:24.560Z,1007.7
2023-05-17T03:30:40.772Z,1007.7
2023-05-17T03:31:57.024Z,1007.7
2023-05-17T03:33:12.000Z,1007.7
2023-05-17T03:34:28.535Z,1007.8
2023-05-17T03:35:44.764Z,1007.8
2023-05-17T03:37:01.006Z,1007.8
2023-05-17T03:38:17.244Z,1007.9
2023-05-17T03:39:33.473Z,1007.9
2023-05-17T03:40:49.708Z,1007.9
2023-05-17T03:42:05.963Z,1007.9
2023-05-17T03:43:22.186Z,1007.9
2023-05-17T03:44:38.445Z,1007.9
2023-05-17T03:45:54.668Z,1007.9
2023-05-17T03:47:10.909Z,1007.9
2023-05-17T03:48:27.148Z,1007.9
2023-05-17T03:49:43.529Z,1008
2023-05-17T03:50:59.758Z,1008
2023-05-17T03:52:16.011Z,1008
2023-05-17T03:53:32.242Z,1008
2023-05-17T03:54:48.481Z,1008
2023-05-17T03:56:04.720Z,1008.1
2023-05-17T03:57:20.951Z,1008.1
2023-05-17T03:58:37.186Z,1008.1
2023-05-17T03:59:53.440Z,1008.1
2023-05-17T04:01:09.667Z,1008.1
2023-05-17T04:02:25.905Z,1008.1
2023-05-17T04:03:42.151Z,1008.1
2023-05-17T04:04:58.407Z,1008.2
2023-05-17T04:06:13.656Z,1008.2
2023-05-17T04:07:29.886Z,1008.1
2023-05-17T04:08:46.140Z,1008.2
2023-05-17T04:10:02.386Z,1008.2
2023-05-17T04:11:18.616Z,1008.2
2023-05-17T04:12:34.860Z,1008.2
2023-05-17T04:13:51.109Z,1008.2
2023-05-17T04:15:07.348Z,1008.2
2023-05-17T04:16:23.572Z,1008.2
2023-05-17T04:17:39.822Z,1008.2
2023-05-17T04:18:56.045Z,1008.2
2023-05-17T04:20:12.297Z,1008.2
2023-05-17T04:21:28.527Z,1008.2
2023-05-17T04:22:43.778Z,1008.3
2023-05-17T04:24:00.018Z,1008.3
2023-05-17T04:25:16.260Z,1008.3
2023-05-17T04:26:32.514Z,1008.3
2023-05-17T04:27:48.754Z,1008.4
2023-05-17T04:29:04.979Z,1008.4
2023-05-17T04:30:21.223Z,1008.4
2023-05-17T04:31:37.468Z,1008.4
2023-05-17T04:32:53.706Z,1008.4
2023-05-17T04:34:09.943Z,1008.4
2023-05-17T04:35:26.182Z,1008.4
2023-05-17T04:36:42.431Z,1008.4
2023-05-17T04:37:58.687Z,1008.4
2023-05-17T04:39:13.942Z,1008.4
2023-05-17T04:40:30.163Z,1008.5
2023-05-17T04:41:46.404Z,1008.4
2023-05-17T04:43:02.631Z,1008.5
2023-05-17T04:44:18.890Z,1008.5
2023-05-17T04:45:35.111Z,1008.5
2023-05-17T04:46:51.000Z,1008.5
2023-05-17T04:48:07.000Z,1008.5
2023-05-17T04:49:23.834Z,1008.5
2023-05-17T04:50:40.075Z,1008.5
2023-05-17T04:51:56.333Z,1008.5
2023-05-17T04:53:12.000Z,1008.5
2023-05-17T04:54:28.806Z,1008.5
2023-05-17T04:55:44.045Z,1008.5
2023-05-17T04:57:00.000Z,1008.5
2023-05-17T04:58:16.526Z,1008.5
2023-05-17T04:59:32.796Z,1008.6
2023-05-17T05:00:49.013Z,1008.6
2023-05-17T05:02:05.267Z,1008.6
2023-05-17T05:03:21.503Z,1008.5
2023-05-17T05:04:37.748Z,1008.5
2023-05-17T05:05:53.995Z,1008.5
2023-05-17T05:07:10.238Z,1008.5
2023-05-17T05:08:26.466Z,1008.5
2023-05-17T05:09:42.695Z,1008.5
2023-05-17T05:10:58.936Z,1008.6
2023-05-17T05:12:14.185Z,1008.6
2023-05-17T05:13:30.431Z,1008.6
2023-05-17T05:14:46.677Z,1008.5
2023-05-17T05:16:02.933Z,1008.6
2023-05-17T05:17:19.159Z,1008.6
2023-05-17T05:18:35.413Z,1008.6
2023-05-17T05:19:51.626Z,1008.7
2023-05-17T05:21:07.887Z,1008.6
2023-05-17T05:22:24.124Z,1008.6
2023-05-17T05:23:40.345Z,1008.7
2023-05-17T05:24:56.584Z,1008.7
2023-05-17T05:26:12.000Z,1008.6
2023-05-17T05:27:29.081Z,1008.7
2023-05-17T05:28:44.354Z,1008.7
2023-05-17T05:30:00.564Z,1008.7
2023-05-17T05:31:16.808Z,1008.7
2023-05-17T05:32:33.047Z,1008.7
2023-05-17T05:33:49.305Z,1008.8
2023-05-17T05:35:05.526Z,1008.8
2023-05-17T05:36:21.771Z,1008.8
2023-05-17T05:37:38.011Z,1008.9
2023-05-17T05:38:54.247Z,1008.9
2023-05-17T05:40:10.515Z,1008.9
2023-05-17T05:41:26.756Z,1008.9
2023-05-17T05:42:43.000Z,1008.9
2023-05-17T05:43:59.203Z,1009
2023-05-17T05:45:14.490Z,1008.9
2023-05-17T05:46:30.726Z,1008.9
2023-05-17T05:47:46.974Z,1008.9
2023-05-17T05:49:03.197Z,1009
2023-05-17T05:50:19.423Z,1009
2023-05-17T05:51:35.684Z,1009
2023-05-17T05:52:51.908Z,1009
2023-05-17T05:54:08.142Z,1009
2023-05-17T05:55:24.397Z,1009
2023-05-17T05:56:40.634Z,1009
2023-05-17T05:57:56.894Z,1009
2023-05-17T05:59:13.103Z,1009
2023-05-17T06:00:29.360Z,1009.1
2023-05-17T06:01:44.610Z,1009.1
2023-05-17T06:03:00.846Z,1009.1
2023-05-17T06:04:17.111Z,1009.2
2023-05-17T06:05:33.320Z,1009.1
2023-05-17T06:06:49.565Z,1009.2
2023-05-17T06:08:05.816Z,1009.1
2023-05-17T06:09:22.072Z,1009.2
2023-05-17T06:10:38.289Z,1009.1
2023-05-17T06:11:54.539Z,1009.1
2023-05-17T06:13:10.793Z,1009.1
2023-05-17T06:14:27.026Z,1009.1
2023-05-17T06:15:43.241Z,1009.1
2023-05-17T06:16:59.481Z,1009.1
2023-05-17T06:18:14.751Z,1009.1
2023-05-17T06:19:31.010Z,1009.1
2023-05-17T06:20:47.226Z,1009.1
2023-05-17T06:22:03.483Z,1009.1
2023-05-17T06:23:19.718Z,1009
2023-05-17T06:24:35.939Z,1009.1
2023-05-17T06:25:52.187Z,1009.2
2023-05-17T06:27:08.431Z,1009.2
2023-05-17T06:28:24.659Z,1009.3
2023-05-17T06:29:40.918Z,1009.2
2023-05-17T06:30:57.148Z,1009.2
2023-05-17T06:32:13.383Z,1009.2
2023-05-17T06:33:29.637Z,1009.2
2023-05-17T06:34:44.892Z,1009.2
2023-05-17T06:36:01.125Z,1009.3
2023-05-17T06:37:17.361Z,1009.3
2023-05-17T06:38:33.605Z,1009.2
2023-05-17T06:39:49.841Z,1009.2
2023-05-17T06:41:06.087Z,1009.2
2023-05-17T06:42:22.333Z,1009.2
2023-05-17T06:43:38.567Z,1009.3
2023-05-17T06:44:54.832Z,1009.2
2023-05-17T06:46:11.061Z,1009.3
2023-05-17T06:47:27.278Z,1009.3
2023-05-17T06:48:43.000Z,1009.3
2023-05-17T06:49:59.785Z,1009.3
2023-05-17T06:51:15.033Z,1009.3
2023-05-17T06:52:31.282Z,1009.4
2023-05-17T06:53:47.499Z,1009.3
2023-05-17T06:55:03.746Z,1009.4
2023-05-17T06:56:19.992Z,1009.3
2023-05-17T06:57:36.220Z,1009.4
2023-05-17T06:58:52.490Z,1009.3
2023-05-17T07:00:08.730Z,1009.4
2023-05-17T07:01:24.945Z,1009.4
2023-05-17T07:02:41.000Z,1009.4
2023-05-17T07:03:57.435Z,1009.4
2023-05-17T07:05:13.661Z,1009.4
2023-05-17T07:06:29.912Z,1009.4
2023-05-17T07:07:46.157Z,1009.5
2023-05-17T07:09:01.414Z,1009.5
2023-05-17T07:10:17.647Z,1009.5
2023-05-17T07:11:33.881Z,1009.6
2023-05-17T07:12:50.119Z,1009.6
2023-05-17T07:14:06.365Z,1009.6
2023-05-17T07:15:22.727Z,1009.6
2023-05-17T07:16:38.966Z,1009.7
2023-05-17T07:17:55.226Z,1009.6
2023-05-17T07:19:11.465Z,1009.6
2023-05-17T07:20:27.706Z,1009.7
2023-05-17T07:21:43.925Z,1009.7
2023-05-17T07:23:00.191Z,1009.7
2023-05-17T07:24:16.437Z,1009.7
2023-05-17T07:25:32.654Z,1009.7
2023-05-17T07:26:48.884Z,1009.6
2023-05-17T07:28:05.157Z,1009.6
2023-05-17T07:29:21.375Z,1009.7
2023-05-17T07:30:37.625Z,1009.6
2023-05-17T07:31:52.864Z,1009.6
2023-05-17T07:33:09.116Z,1009.6
2023-05-17T07:34:25.359Z,1009.6
2023-05-17T07:35:41.614Z,1009.6
2023-05-17T07:36:57.854Z,1009.5
2023-05-17T07:38:14.063Z,1009.6
2023-05-17T07:39:30.300Z,1009.6
2023-05-17T07:40:46.548Z,1009.6
2023-05-17T07:42:02.804Z,1009.6
2023-05-17T07:43:19.037Z,1009.6
2023-05-17T07:44:35.271Z,1009.6
2023-05-17T07:45:51.517Z,1009.6
2023-05-17T07:47:07.767Z,1009.6
2023-05-17T07:48:23.030Z,1009.6
2023-05-17T07:49:39.270Z,1009.6
2023-05-17T07:50:55.512Z,1009.6
2023-05-17T07:52:11.728Z,1009.7
2023-05-17T07:53:27.975Z,1009.6
2023-05-17T07:54:44.215Z,1009.6
2023-05-17T07:56:00.439Z,1009.6
2023-05-17T07:57:16.701Z,1009.7
2023-05-17T07:58:32.925Z,1009.7
2023-05-17T07:59:49.161Z,1009.6
2023-05-17T08:01:05.428Z,1009.6
2023-05-17T08:02:21.654Z,1009.6
2023-05-17T08:03:37.877Z,1009.7
2023-05-17T08:04:53.000Z,1009.7
2023-05-17T08:06:09.371Z,1009.7
2023-05-17T08:07:25.626Z,1009.7
2023-05-17T08:08:41.878Z,1009.8
2023-05-17T08:09:58.115Z,1009.7
2023-05-17T08:11:14.355Z,1009.7
2023-05-17T08:12:30.575Z,1009.7
2023-05-17T08:13:46.843Z,1009.7
2023-05-17T08:15:03.065Z,1009.7
2023-05-17T08:16:19.296Z,1009.7
2023-05-17T08:17:35.559Z,1009.7
2023-05-17T08:18:51.785Z,1009.8
2023-05-17T08:20:08.011Z,1009.8
2023-05-17T08:21:23.267Z,1009.7
2023-05-17T08:22:39.509Z,1009.7
2023-05-17T08:23:55.766Z,1009.7
2023-05-17T08:25:11.999Z,1009.7
2023-05-17T08:26:28.223Z,1009.7
2023-05-17T08:27:44.464Z,1009.8
2023-05-17T08:29:00.719Z,1009.8
2023-05-17T08:30:16.942Z,1009.8
2023-05-17T08:31:33.182Z,1009.7
2023-05-17T08:32:49.423Z,1009.7
2023-05-17T08:34:05.684Z,1009.7
2023-05-17T08:35:21.904Z,1009.8
2023-05-17T08:36:38.173Z,1009.9
2023-05-17T08:37:53.420Z,1009.9
2023-05-17T08:39:09.670Z,1009.9
2023-05-17T08:40:25.875Z,1009.9
2023-05-17T08:41:42.126Z,1009.9
2023-05-17T08:42:58.364Z,1009.9
2023-05-17T08:44:14.610Z,1009.9
2023-05-17T08:45:30.849Z,1010
2023-05-17T08:46:47.071Z,1010
2023-05-17T08:48:03.312Z,1009.9
2023-05-17T08:49:19.578Z,1009.9
2023-05-17T08:50:35.816Z,1009.9
2023-05-17T08:51:52.056Z,1009.9
2023-05-17T08:53:08.295Z,1010
2023-05-17T08:54:23.542Z,1009.9
2023-05-17T08:55:39.787Z,1010
2023-05-17T08:56:56.005Z,1010
2023-05-17T08:58:12.264Z,1010
2023-05-17T08:59:28.490Z,1010.2
2023-05-17T09:00:44.752Z,1010.1
2023-05-17T09:02:00.994Z,1010.1
2023-05-17T09:03:17.234Z,1010
2023-05-17T09:04:33.481Z,1010
2023-05-17T09:05:49.710Z,1010
2023-05-17T09:07:05.943Z,1010
2023-05-17T09:08:22.198Z,1010
2023-05-17T09:09:38.428Z,1010
2023-05-17T09:10:53.678Z,1010
2023-05-17T09:12:09.908Z,1010
2023-05-17T09:13:26.153Z,1009.9
2023-05-17T09:14:42.385Z,1009.9
2023-05-17T09:15:58.644Z,1009.9
2023-05-17T09:17:14.862Z,1009.9
2023-05-17T09:18:31.095Z,1009.9
2023-05-17T09:19:47.352Z,1009.9
2023-05-17T09:21:03.605Z,1009.9
2023-05-17T09:22:19.837Z,1009.9
2023-05-17T09:23:36.068Z,1009.9
2023-05-17T09:24:52.293Z,1009.8
2023-05-17T09:26:08.531Z,1009.9
2023-05-17T09:27:23.790Z,1009.9
2023-05-17T09:28:40.040Z,1009.8
2023-05-17T09:29:56.289Z,1010
2023-05-17T09:31:12.524Z,1009.9
2023-05-17T09:32:28.762Z,1009.9
2023-05-17T09:33:45.003Z,1010
2023-05-17T09:35:01.258Z,1009.9
2023-05-17T09:36:17.498Z,1010
2023-05-17T09:37:33.714Z,1010
2023-05-17T09:38:49.949Z,1010
2023-05-17T09:40:06.182Z,1009.9
2023-05-17T09:41:22.449Z,1010
2023-05-17T09:42:38.664Z,1009.9
2023-05-17T09:43:53.945Z,1009.9
2023-05-17T09:45:10.180Z,1009.9
2023-05-17T09:46:26.409Z,1009.8
2023-05-17T09:47:42.644Z,1009.9
2023-05-17T09:48:58.908Z,1009.9
2023-05-17T09:50:15.123Z,1009.9
2023-05-17T09:51:31.355Z,1009.9
2023-05-17T09:52:47.629Z,1010
2023-05-17T09:54:03.840Z,1010
2023-05-17T09:55:20.095Z,1009.9
2023-05-17T09:56:36.335Z,1010
2023-05-17T09:57:52.581Z,1010
2023-05-17T09:59:08.798Z,1010.1
2023-05-17T10:00:24.053Z,1010
2023-05-17T10:01:40.294Z,1009.9
2023-05-17T10:02:56.527Z,1010
2023-05-17T10:04:12.766Z,1010
2023-05-17T10:05:29.019Z,1010
2023-05-17T10:06:45.277Z,1010
2023-05-17T10:08:01.503Z,1010.1
2023-05-17T10:09:17.742Z,1010
2023-05-17T10:10:33.963Z,1010
2023-05-17T10:11:50.213Z,1010
2023-05-17T10:13:06.437Z,1010
2023-05-17T10:14:22.681Z,1010
2023-05-17T10:15:38.950Z,1010
2023-05-17T10:16:54.205Z,1010
2023-05-17T10:18:10.437Z,1010.1
2023-05-17T10:19:26.652Z,1010.1
2023-05-17T10:20:42.898Z,1010.1
2023-05-17T10:21:59.147Z,1010.1
2023-05-17T10:23:15.401Z,1010.2
2023-05-17T10:24:31.617Z,1010.2
2023-05-17T10:25:47.853Z,1010.3
2023-05-17T10:27:04.088Z,1010.2
2023-05-17T10:28:20.334Z,1010.2
2023-05-17T10:29:36.596Z,1010.1
2023-05-17T10:30:52.831Z,1010
2023-05-17T10:32:09.047Z,1010.2
2023-05-17T10:33:24.315Z,1010.2
2023-05-17T10:34:40.534Z,1010.2
2023-05-17T10:35:56.791Z,1010.3
2023-05-17T10:37:13.013Z,1010.3
2023-05-17T10:38:29.283Z,1010.3
2023-05-17T10:39:45.502Z,1010.3
2023-05-17T10:41:01.763Z,1010.3
2023-05-17T10:42:18.001Z,1010.4
2023-05-17T10:43:34.211Z,1010.4
2023-05-17T10:44:50.443Z,1010.4
2023-05-17T10:46:06.693Z,1010.4
2023-05-17T10:47:22.935Z,1010.3
2023-05-17T10:48:39.179Z,1010.4
2023-05-17T10:49:54.443Z,1010.3
2023-05-17T10:51:10.689Z,1010.4
2023-05-17T10:52:26.929Z,1010.3
2023-05-17T10:53:43.166Z,1010.3
2023-05-17T10:54:59.400Z,1010.3
2023-05-17T10:56:15.630Z,1010.3
2023-05-17T10:57:31.877Z,1010.4
2023-05-17T10:58:48.087Z,1010.3
2023-05-17T11:00:04.327Z,1010.3
2023-05-17T11:01:20.565Z,1010.3
2023-05-17T11:02:36.805Z,1010.3
2023-05-17T11:03:53.077Z,1010.3
2023-05-17T11:05:09.288Z,1010.3
2023-05-17T11:06:24.546Z,1010.3
2023-05-17T11:07:40.778Z,1010.3
2023-05-17T11:08:57.016Z,1010.3
2023-05-17T11:10:13.251Z,1010.3
2023-05-17T11:11:29.493Z,1010.3
2023-05-17T11:12:45.755Z,1010.2
2023-05-17T11:14:01.985Z,1010.2
2023-05-17T11:15:18.240Z,1010.3
2023-05-17T11:16:34.443Z,1010.2
2023-05-17T11:17:50.701Z,1010.2
2023-05-17T11:19:06.956Z,1010.3
2023-05-17T11:20:23.161Z,1010.3
2023-05-17T11:21:39.410Z,1010.3
2023-05-17T11:22:54.659Z,1010.3
2023-05-17T11:24:10.909Z,1010.2
2023-05-17T11:25:27.147Z,1010.2
2023-05-17T11:26:43.404Z,1010.2
2023-05-17T11:27:59.630Z,1010.2
2023-05-17T11:29:15.854Z,1010.3
2023-05-17T11:30:31.109Z,1010.2
2023-05-17T11:31:47.366Z,1010.1
2023-05-17T11:33:03.000Z,1010.1
2023-05-17T11:34:19.857Z,1010.1
2023-05-17T11:35:36.065Z,1010
2023-05-17T11:36:52.308Z,1010
2023-05-17T11:38:08.538Z,1010.1
2023-05-17T11:39:24.808Z,1010.1
2023-05-17T11:40:41.027Z,1010.1
2023-05-17T11:41:57.259Z,1010.1
2023-05-17T11:43:13.000Z,1010.2
2023-05-17T11:44:29.748Z,1010.2
2023-05-17T11:45:45.977Z,1010.3
2023-05-17T11:47:01.234Z,1010.2
2023-05-17T11:48:17.464Z,1010.1
2023-05-17T11:49:33.710Z,1010.2
2023-05-17T11:50:49.975Z,1010.1
2023-05-17T11:52:06.199Z,1010.1
2023-05-17T11:53:22.420Z,1010.1
2023-05-17T11:54:38.666Z,1010.1
2023-05-17T11:55:54.919Z,1010.2
2023-05-17T11:57:11.170Z,1010.1
2023-05-17T11:58:27.373Z,1010.1
2023-05-17T11:59:43.618Z,1010.1
2023-05-17T12:00:59.859Z,1010
2023-05-17T12:02:16.122Z,1010.2
2023-05-17T12:03:31.356Z,1010.2
2023-05-17T12:04:47.607Z,1010.1
2023-05-17T12:06:03.835Z,1010.2
2023-05-17T12:07:20.061Z,1010.2
2023-05-17T12:08:36.320Z,1010.2
2023-05-17T12:09:52.558Z,1010.1
2023-05-17T12:11:08.775Z,1010.1
2023-05-17T12:12:25.047Z,1010.1
2023-05-17T12:13:41.250Z,1010.2
2023-05-17T12:14:57.525Z,1010.2
2023-05-17T12:16:13.742Z,1010.1
2023-05-17T12:17:30.001Z,1010.1
2023-05-17T12:18:46.238Z,1010.1
2023-05-17T12:20:01.463Z,1010.1
2023-05-17T12:21:17.698Z,1010
2023-05-17T12:22:33.945Z,1010
2023-05-17T12:23:50.179Z,1010
2023-05-17T12:25:06.454Z,1010
2023-05-17T12:26:22.683Z,1010
2023-05-17T12:27:38.922Z,1010.1
2023-05-17T12:28:55.137Z,1010
2023-05-17T12:30:11.398Z,1010
2023-05-17T12:31:27.641Z,1010
2023-05-17T12:32:43.000Z,1010.1
2023-05-17T12:34:00.111Z,1010
2023-05-17T12:35:16.325Z,1010.1
2023-05-17T12:36:31.585Z,1010.1
2023-05-17T12:37:47.820Z,1010
2023-05-17T12:39:04.055Z,1010
2023-05-17T12:40:20.298Z,1009.9
2023-05-17T12:41:36.558Z,1009.9
2023-05-17T12:42:52.783Z,1009.9
2023-05-17T12:44:09.034Z,1009.9
2023-05-17T12:45:25.275Z,1009.9
2023-05-17T12:46:41.499Z,1009.9
2023-05-17T12:47:57.758Z,1009.9
2023-05-17T12:49:13.969Z,1009.9
2023-05-17T12:50:30.204Z,1009.9
2023-05-17T12:51:46.454Z,1009.9
2023-05-17T12:53:01.726Z,1009.9
2023-05-17T12:54:17.939Z,1009.9
2023-05-17T12:55:34.175Z,1009.9
2023-05-17T12:56:50.448Z,1009.9
2023-05-17T12:58:06.652Z,1009.8
2023-05-17T12:59:22.915Z,1009.9
2023-05-17T13:00:39.143Z,1009.9
2023-05-17T13:01:55.376Z,1009.9
2023-05-17T13:03:11.619Z,1009.9
2023-05-17T13:04:27.848Z,1009.9
2023-05-17T13:05:44.110Z,1009.9
2023-05-17T13:07:00.351Z,1010
2023-05-17T13:08:16.582Z,1010
2023-05-17T13:09:31.847Z,1009.9
2023-05-17T13:10:48.065Z,1009.9
2023-05-17T13:12:04.304Z,1010
2023-05-17T13:13:20.542Z,1009.9
2023-05-17T13:14:36.810Z,1009.9
2023-05-17T13:15:53.057Z,1009.9
2023-05-17T13:17:09.288Z,1010
2023-05-17T13:18:25.527Z,1010
2023-05-17T13:19:41.734Z,1009.9
2023-05-17T13:20:57.996Z,1009.9
2023-05-17T13:22:14.216Z,1010
2023-05-17T13:23:30.460Z,1010
2023-05-17T13:24:46.703Z,1010
2023-05-17T13:26:01.941Z,1010
2023-05-17T13:27:18.210Z,1009.9
2023-05-17T13:28:34.424Z,1009.9
2023-05-17T13:29:50.685Z,1010
2023-05-17T13:31:06.903Z,1009.9
2023-05-17T13:32:23.144Z,1010
2023-05-17T13:33:39.406Z,1009.9
2023-05-17T13:34:55.619Z,1009.9
2023-05-17T13:36:11.888Z,1009.9
2023-05-17T13:37:28.124Z,1009.9
2023-05-17T13:38:44.340Z,1009.9
2023-05-17T13:40:00.577Z,1009.9
2023-05-17T13:41:16.808Z,1009.9
2023-05-17T13:42:32.095Z,1009.9
2023-05-17T13:43:48.309Z,1009.8
2023-05-17T13:45:04.572Z,1009.9
2023-05-17T13:46:20.810Z,1009.9
2023-05-17T13:47:37.057Z,1009.9
2023-05-17T13:48:53.288Z,1009.9
2023-05-17T13:50:09.541Z,1009.9
2023-05-17T13:51:25.742Z,1010
2023-05-17T13:52:42.011Z,1009.9
2023-05-17T13:53:58.235Z,1009.9
2023-05-17T13:55:14.491Z,1010
2023-05-17T13:56:30.692Z,1010
2023-05-17T13:57:46.934Z,1010
2023-05-17T13:59:02.204Z,1010
2023-05-17T14:00:18.452Z,1010
2023-05-17T14:01:34.667Z,1009.9
2023-05-17T14:02:50.917Z,1009.9
2023-05-17T14:04:07.152Z,1010
2023-05-17T14:05:23.412Z,1010.1
2023-05-17T14:06:39.630Z,1010
2023-05-17T14:07:55.868Z,1010
2023-05-17T14:09:12.131Z,1010
2023-05-17T14:10:28.349Z,1010.1
2023-05-17T14:11:44.604Z,1010.1
2023-05-17T14:13:00.818Z,1010
2023-05-17T14:14:17.087Z,1010
2023-05-17T14:15:32.337Z,1010
2023-05-17T14:16:48.577Z,1010
2023-05-17T14:18:04.806Z,1009.9
2023-05-17T14:19:21.028Z,1009.9
2023-05-17T14:20:37.272Z,1010
2023-05-17T14:21:53.543Z,1010
2023-05-17T14:23:09.750Z,1010
2023-05-17T14:24:25.983Z,1010.1
2023-05-17T14:25:42.235Z,1009.9
2023-05-17T14:26:58.498Z,1009.9
2023-05-17T14:28:14.715Z,1009.9
2023-05-17T14:29:30.956Z,1010
2023-05-17T14:30:47.209Z,1009.9
2023-05-17T14:32:02.441Z,1010
2023-05-17T14:33:18.679Z,1010
2023-05-17T14:34:34.952Z,1010
2023-05-17T14:35:51.154Z,1010
2023-05-17T14:37:07.394Z,1009.9
2023-05-17T14:38:23.638Z,1010
2023-05-17T14:39:39.890Z,1010
2023-05-17T14:40:56.120Z,1010.1
2023-05-17T14:42:12.367Z,1009.9
2023-05-17T14:43:28.625Z,1010
2023-05-17T14:44:44.832Z,1010
2023-05-17T14:46:01.071Z,1010.1
2023-05-17T14:47:17.313Z,1010.1
2023-05-17T14:48:32.594Z,1010.2
2023-05-17T14:49:48.840Z,1010.2
2023-05-17T14:51:05.065Z,1010.2
2023-05-17T14:52:21.319Z,1010.1
2023-05-17T14:53:37.531Z,1010.2
2023-05-17T14:54:53.763Z,1010.2
2023-05-17T14:56:10.039Z,1010.2
2023-05-17T14:57:26.279Z,1010.2
2023-05-17T14:58:42.525Z,1010.2
2023-05-17T14:59:58.753Z,1010.1
2023-05-17T15:01:14.991Z,1010.2
2023-05-17T15:02:31.000Z,1010.2
2023-05-17T15:03:47.474Z,1010.3
2023-05-17T15:05:03.804Z,1010.3
2023-05-17T15:06:20.046Z,1010.3
2023-05-17T15:07:36.286Z,1010.3
2023-05-17T15:08:52.561Z,1010.2
2023-05-17T15:10:08.764Z,1010.2
2023-05-17T15:11:25.014Z,1010.2
2023-05-17T15:12:41.283Z,1010.2
2023-05-17T15:13:57.494Z,1010.2
2023-05-17T15:15:13.760Z,1010.2
2023-05-17T15:16:30.010Z,1010.2
2023-05-17T15:17:46.209Z,1010.2
2023-05-17T15:19:02.479Z,1010.2
2023-05-17T15:20:18.695Z,1010.2
2023-05-17T15:21:33.977Z,1010.2
2023-05-17T15:22:50.215Z,1010.1
2023-05-17T15:24:06.454Z,1010.2
2023-05-17T15:25:22.670Z,1010.2
2023-05-17T15:26:38.940Z,1010.2
2023-05-17T15:27:55.146Z,1010.2
2023-05-17T15:29:11.401Z,1010.1
2023-05-17T15:30:27.631Z,1010.2
2023-05-17T15:31:43.876Z,1010.2
2023-05-17T15:33:00.107Z,1010.2
2023-05-17T15:34:16.387Z,1010.1
2023-05-17T15:35:32.600Z,1010.2
2023-05-17T15:36:48.873Z,1010.2
2023-05-17T15:38:04.101Z,1010.2
2023-05-17T15:39:20.361Z,1010.2
2023-05-17T15:40:36.602Z,1010.2
2023-05-17T15:41:52.815Z,1010.2
2023-05-17T15:43:09.060Z,1010.1
2023-05-17T15:44:25.288Z,1010.1
2023-05-17T15:45:40.558Z,1010.1
2023-05-17T15:46:56.796Z,1010.1
2023-05-17T15:48:13.062Z,1010.1
2023-05-17T15:49:29.305Z,1010.1
2023-05-17T15:50:45.546Z,1010.1
2023-05-17T15:52:01.750Z,1010.1
2023-05-17T15:53:18.029Z,1010.1
2023-05-17T15:54:34.265Z,1010
2023-05-17T15:55:50.501Z,1010
2023-05-17T15:57:06.712Z,1010
2023-05-17T15:58:22.989Z,1010
2023-05-17T15:59:39.227Z,1010
2023-05-17T16:00:55.462Z,1009.9